Time;durP1;ratioP1;P1;durP2;ratioP2;P2;SDS_P1;SDS_P2;PMS_P1;PMS_P2;Temp;Humidity;BMP_temperature;BMP_pressure;BME280_temperature;BME280_humidity;BME280_pressure;Samples;Min_cycle;Max_cycle;Signal;HPM_P1;HPM_P2
2023/01/26 00:00:11;;;;;;;25.23;9.93;;;;;;;-0.38;100.00;99830.72;5027940;28;20217;-78
2023/01/26 00:02:40;;;;;;;27.10;10.40;;;;;;;-0.63;100.00;99823.97;5030663;28;20222;-78
2023/01/26 00:05:08;;;;;;;22.43;9.90;;;;;;;-0.58;100.00;99827.38;5046646;28;20192;-79
2023/01/26 00:07:41;;;;;;;19.97;9.30;;;;;;;-0.39;100.00;99831.56;5112699;28;20190;-78
2023/01/26 00:10:10;;;;;;;20.00;8.87;;;;;;;-0.52;100.00;99827.34;5113427;28;20206;-78
2023/01/26 00:12:42;;;;;;;20.13;9.90;;;;;;;-0.30;100.00;99823.66;5109975;28;20203;-78
2023/01/26 00:15:11;;;;;;;24.30;9.37;;;;;;;-0.67;100.00;99830.97;5109949;28;20183;-78
2023/01/26 00:17:41;;;;;;;20.87;10.10;;;;;;;-0.66;100.00;99827.47;5111354;28;20229;-78
2023/01/26 00:20:11;;;;;;;22.33;10.20;;;;;;;-0.61;100.00;99822.22;5107985;28;20215;-78
2023/01/26 00:22:40;;;;;;;23.33;9.77;;;;;;;-0.61;100.00;99820.47;5115436;28;20183;-78
2023/01/26 00:25:09;;;;;;;18.97;9.03;;;;;;;-0.59;100.00;99823.94;5109049;28;20195;-79
2023/01/26 00:27:37;;;;;;;29.37;10.63;;;;;;;-0.60;100.00;99824.81;5115447;28;20195;-78
2023/01/26 00:30:10;;;;;;;23.50;9.60;;;;;;;-0.47;100.00;99822.13;5103159;28;20256;-79
2023/01/26 00:32:39;;;;;;;17.17;9.20;;;;;;;-0.31;100.00;99821.09;5112159;28;20222;-77
2023/01/26 00:35:09;;;;;;;23.63;10.03;;;;;;;-0.26;100.00;99818.47;5113893;28;20209;-77
2023/01/26 00:37:37;;;;;;;18.13;9.60;;;;;;;-0.16;100.00;99818.34;5114996;28;20207;-79
2023/01/26 00:40:06;;;;;;;31.27;11.50;;;;;;;-0.19;100.00;99815.78;5108347;28;20240;-78
2023/01/26 00:42:35;;;;;;;27.13;12.07;;;;;;;-0.14;100.00;99813.97;5065795;28;20724;-79
2023/01/26 00:45:04;;;;;;;35.07;12.37;;;;;;;-0.21;100.00;99816.66;5068224;28;20242;-79
2023/01/26 00:47:34;;;;;;;28.53;11.47;;;;;;;0.01;100.00;99812.13;5066851;28;20238;-79
2023/01/26 00:50:02;;;;;;;25.00;11.93;;;;;;;-0.11;100.00;99813.94;5069583;28;20192;-78
2023/01/26 00:52:30;;;;;;;22.50;11.60;;;;;;;-0.13;100.00;99804.44;5071847;28;20196;-79
2023/01/26 00:54:59;;;;;;;25.70;11.30;;;;;;;-0.02;100.00;99808.63;5054054;28;20196;-78
2023/01/26 00:57:27;;;;;;;27.17;11.50;;;;;;;-0.08;100.00;99805.25;5069104;28;20691;-79
2023/01/26 00:59:56;;;;;;;27.37;11.37;;;;;;;-0.17;100.00;99801.00;5078120;28;20195;-79
2023/01/26 01:02:24;;;;;;;20.73;10.90;;;;;;;-0.26;100.00;99790.69;5110522;28;20223;-78
2023/01/26 01:04:54;;;;;;;23.57;11.30;;;;;;;-0.23;100.00;99793.25;5113257;28;20199;-78
2023/01/26 01:07:24;;;;;;;24.63;11.20;;;;;;;-0.30;100.00;99795.03;5114501;28;20192;-79
2023/01/26 01:09:53;;;;;;;30.87;10.90;;;;;;;-0.54;100.00;99797.03;5112434;28;20207;-78
2023/01/26 01:12:21;;;;;;;25.20;11.23;;;;;;;-0.41;100.00;99796.91;5109547;28;20255;-79
2023/01/26 01:14:49;;;;;;;38.70;12.57;;;;;;;-0.69;100.00;99798.00;5102581;28;20247;-79
2023/01/26 01:17:18;;;;;;;20.40;10.10;;;;;;;-0.42;100.00;99795.16;5109689;28;20194;-78
2023/01/26 01:19:46;;;;;;;19.10;10.13;;;;;;;-0.35;100.00;99796.84;5102495;28;20195;-78
2023/01/26 01:22:17;;;;;;;20.10;10.33;;;;;;;-0.39;100.00;99791.66;5102543;28;20219;-79
2023/01/26 01:24:45;;;;;;;19.53;10.43;;;;;;;-0.24;100.00;99795.88;5108513;28;20207;-79
2023/01/26 01:27:14;;;;;;;16.80;9.53;;;;;;;-0.31;100.00;99795.94;5105564;28;20195;-78
2023/01/26 01:29:42;;;;;;;18.33;9.90;;;;;;;-0.24;100.00;99804.53;5114230;28;20206;-79
2023/01/26 01:32:10;;;;;;;19.53;10.00;;;;;;;-0.26;100.00;99803.69;5088796;28;20192;-78
2023/01/26 01:34:39;;;;;;;16.97;9.10;;;;;;;-0.26;100.00;99792.44;5087821;28;20192;-79
2023/01/26 01:37:07;;;;;;;18.23;9.83;;;;;;;-0.49;100.00;99797.84;5087950;28;20199;-79
2023/01/26 01:39:37;;;;;;;20.50;8.87;;;;;;;-0.38;100.00;99802.09;5084599;28;20684;-79
2023/01/26 01:42:05;;;;;;;15.90;9.30;;;;;;;-0.59;100.00;99794.44;5088636;28;20219;-79
2023/01/26 01:44:36;;;;;;;16.87;9.13;;;;;;;-0.63;100.00;99791.03;5087756;28;20192;-78
2023/01/26 01:47:06;;;;;;;13.17;7.80;;;;;;;-0.52;100.00;99790.94;5091253;28;20195;-79
2023/01/26 01:49:41;;;;;;;13.17;7.93;;;;;;;-0.43;100.00;99792.59;5090038;28;20268;-79
2023/01/26 01:52:12;;;;;;;12.63;7.60;;;;;;;-0.32;100.00;99789.00;5105116;28;20190;-79
2023/01/26 01:54:49;;;;;;;11.57;6.97;;;;;;;-0.27;100.00;99796.78;5068121;28;20233;-79
2023/01/26 01:57:26;;;;;;;13.43;7.17;;;;;;;-0.32;100.00;99796.81;5066855;28;20294;-79
2023/01/26 02:00:00;;;;;;;13.03;7.03;;;;;;;-0.22;100.00;99783.69;5067168;28;20204;-79
2023/01/26 02:02:29;;;;;;;12.63;7.30;;;;;;;-0.24;100.00;99772.44;5066380;28;20228;-79
2023/01/26 02:05:03;;;;;;;11.30;7.30;;;;;;;-0.15;100.00;99780.16;5069724;28;20201;-79
2023/01/26 02:07:33;;;;;;;10.27;6.43;;;;;;;-0.15;100.00;99774.97;5070550;28;20289;-79
2023/01/26 02:10:19;;;;;;;11.80;6.77;;;;;;;-0.06;100.00;99764.44;5066894;28;20231;-79
2023/01/26 02:12:50;;;;;;;9.47;6.30;;;;;;;-0.10;100.00;99762.72;5089436;28;20206;-78
2023/01/26 02:15:19;;;;;;;10.27;6.33;;;;;;;-0.11;100.00;99750.59;5111031;28;20272;-79
2023/01/26 02:17:47;;;;;;;10.63;6.70;;;;;;;0.01;100.00;99747.03;5112514;28;20303;-79
2023/01/26 02:20:22;;;;;;;10.43;6.63;;;;;;;0.10;100.00;99742.56;5107657;28;20202;-79
2023/01/26 02:22:59;;;;;;;10.77;6.40;;;;;;;-0.01;100.00;99736.59;5108023;28;20210;-79
2023/01/26 02:25:37;;;;;;;9.20;5.73;;;;;;;-0.21;100.00;99741.19;5107279;28;20195;-79
2023/01/26 02:28:07;;;;;;;9.37;6.30;;;;;;;-0.23;100.00;99729.91;5112879;28;20190;-79
2023/01/26 02:30:36;;;;;;;11.17;6.70;;;;;;;-0.14;100.00;99728.06;5107717;28;20654;-79
2023/01/26 02:33:04;;;;;;;11.30;7.03;;;;;;;-0.04;100.00;99721.03;5105333;28;20256;-79
2023/01/26 02:35:33;;;;;;;10.23;6.73;;;;;;;0.03;100.00;99725.28;5103641;28;20248;-79
2023/01/26 02:38:01;;;;;;;8.17;5.70;;;;;;;0.06;100.00;99724.38;5110874;28;20187;-80
2023/01/26 02:40:38;;;;;;;9.70;5.97;;;;;;;0.03;100.00;99717.47;5112861;28;20191;-79
2023/01/26 02:43:06;;;;;;;9.90;6.40;;;;;;;-0.01;100.00;99710.56;5109076;28;20191;-79
2023/01/26 02:45:36;;;;;;;9.00;6.10;;;;;;;-0.01;100.00;99702.75;5104684;28;20313;-79
2023/01/26 02:48:06;;;;;;;11.07;6.50;;;;;;;-0.01;100.00;99698.41;5105883;28;20195;-79
2023/01/26 02:50:34;;;;;;;8.87;5.53;;;;;;;-0.01;100.00;99708.81;5108272;28;20641;-78
2023/01/26 02:53:04;;;;;;;10.40;6.63;;;;;;;-0.10;100.00;99703.72;5104990;28;20194;-78
2023/01/26 02:55:34;;;;;;;9.77;6.37;;;;;;;0.08;100.00;99694.81;5107476;28;20191;-79
2023/01/26 02:58:05;;;;;;;10.57;6.80;;;;;;;0.02;100.00;99702.72;5106241;28;20203;-78
2023/01/26 03:00:41;;;;;;;10.80;6.63;;;;;;;0.02;100.00;99694.91;5106794;28;20203;-79
2023/01/26 03:03:14;;;;;;;10.27;6.27;;;;;;;-0.25;100.00;99690.03;5108396;28;20227;-79
2023/01/26 03:05:43;;;;;;;12.50;6.47;;;;;;;-0.04;100.00;99701.06;5107975;28;20199;-79
2023/01/26 03:08:13;;;;;;;9.70;5.90;;;;;;;-0.37;100.00;99693.66;5109895;28;20188;-79
2023/01/26 03:10:41;;;;;;;7.57;5.67;;;;;;;-0.23;100.00;99683.94;5114653;28;20252;-79
2023/01/26 03:13:10;;;;;;;9.30;5.87;;;;;;;-0.15;100.00;99683.84;5111141;28;20191;-79
2023/01/26 03:15:46;;;;;;;9.80;6.23;;;;;;;0.12;100.00;99683.50;5112494;28;20191;-79
2023/01/26 03:29:25;;;;;;;9.60;6.77;;;;;;;0.21;100.00;99664.28;5113123;28;20199;-79
2023/01/26 03:31:55;;;;;;;8.93;6.10;;;;;;;0.25;100.00;99669.41;5062228;28;20191;-79
2023/01/26 03:34:24;;;;;;;11.67;6.73;;;;;;;0.18;100.00;99665.16;5110312;28;20236;-80
2023/01/26 03:36:52;;;;;;;10.83;7.03;;;;;;;0.21;100.00;99667.75;5111259;28;20244;-79
2023/01/26 03:56:17;;;;;;;11.17;7.97;;;;;;;0.11;100.00;99641.84;5112562;28;20199;-79
2023/01/26 03:58:47;;;;;;;11.27;8.07;;;;;;;0.21;100.00;99643.44;5110283;28;20202;-80
2023/01/26 04:01:18;;;;;;;13.13;8.27;;;;;;;0.23;100.00;99650.34;5115741;28;20193;-80
2023/01/26 04:09:25;;;;;;;12.37;7.97;;;;;;;0.14;100.00;99642.66;5115553;28;20677;-79
2023/01/26 04:11:55;;;;;;;14.47;8.60;;;;;;;0.18;100.00;99646.06;5107285;28;20202;-79
2023/01/26 04:22:52;;;;;;;13.67;8.33;;;;;;;-0.06;100.00;99636.88;5115172;28;20248;-79
2023/01/26 04:25:22;;;;;;;13.83;8.47;;;;;;;-0.05;100.00;99634.25;5111218;28;20669;-78
2023/01/26 04:27:50;;;;;;;15.33;9.63;;;;;;;0.08;100.00;99642.75;5115466;28;20195;-78
2023/01/26 04:30:19;;;;;;;14.77;8.97;;;;;;;0.09;100.00;99633.19;5107620;28;20278;-79
2023/01/26 04:32:47;;;;;;;15.63;9.17;;;;;;;-0.04;100.00;99630.75;5111220;28;20323;-79
2023/01/26 04:35:17;;;;;;;16.80;9.97;;;;;;;0.01;100.00;99627.25;5108796;28;20210;-78
2023/01/26 04:37:45;;;;;;;17.70;10.50;;;;;;;0.07;100.00;99627.13;5110358;28;20195;-79
2023/01/26 04:40:14;;;;;;;17.87;10.57;;;;;;;-0.10;100.00;99620.41;5074193;28;20188;-79
2023/01/26 04:42:42;;;;;;;18.93;10.67;;;;;;;-0.22;100.00;99627.53;5111861;28;20630;-78
2023/01/26 04:45:11;;;;;;;16.10;10.57;;;;;;;-0.23;100.00;99618.00;5110880;28;20199;-79
2023/01/26 04:47:40;;;;;;;17.33;11.03;;;;;;;-0.28;100.00;99625.03;5106564;28;20300;-79
2023/01/26 04:50:10;;;;;;;16.77;10.10;;;;;;;-0.25;100.00;99628.44;5109703;28;20259;-78
2023/01/26 04:52:40;;;;;;;21.07;12.73;;;;;;;-0.25;100.00;99623.25;5060321;28;20195;-79
2023/01/26 04:55:09;;;;;;;20.67;12.90;;;;;;;-0.78;100.00;99634.25;5112183;28;20260;-78
2023/01/26 04:57:37;;;;;;;15.40;10.50;;;;;;;-0.64;100.00;99629.78;5106163;28;20256;-79
2023/01/26 05:00:07;;;;;;;20.57;11.67;;;;;;;-0.63;100.00;99636.69;5109713;28;20231;-78
2023/01/26 05:02:36;;;;;;;21.97;12.50;;;;;;;-0.72;100.00;99626.41;5115858;28;20323;-79
2023/01/26 05:05:04;;;;;;;20.33;11.77;;;;;;;-0.68;100.00;99628.06;5108646;28;20191;-79
2023/01/26 05:07:36;;;;;;;19.77;11.33;;;;;;;-0.84;100.00;99627.41;5108561;28;20293;-79
2023/01/26 05:10:07;;;;;;;18.67;10.80;;;;;;;-0.78;100.00;99622.13;5107796;28;20247;-79
2023/01/26 05:12:37;;;;;;;18.87;10.97;;;;;;;-0.68;100.00;99633.28;5071585;28;20196;-79
2023/01/26 05:15:06;;;;;;;21.07;12.37;;;;;;;-0.63;100.00;99624.56;5065587;28;20192;-79
2023/01/26 05:17:36;;;;;;;17.77;10.97;;;;;;;-0.59;100.00;99634.03;5071699;28;20189;-79
2023/01/26 05:20:06;;;;;;;17.03;10.63;;;;;;;-0.57;100.00;99631.44;5069398;28;20192;-80
2023/01/26 05:22:34;;;;;;;20.80;12.33;;;;;;;-0.53;100.00;99632.25;5011879;28;21207;-79
2023/01/26 05:25:07;;;;;;;20.73;11.87;;;;;;;-0.79;100.00;99630.78;5007945;28;20194;-79
2023/01/26 05:27:37;;;;;;;21.37;11.63;;;;;;;-0.69;100.00;99634.16;5005537;28;20257;-79
2023/01/26 05:30:06;;;;;;;21.10;11.57;;;;;;;-0.73;100.00;99638.53;5009151;28;20206;-79
2023/01/26 05:32:34;;;;;;;19.37;11.43;;;;;;;-0.76;100.00;99640.31;5004944;28;20258;-79
2023/01/26 05:35:03;;;;;;;17.83;10.70;;;;;;;-0.88;100.00;99643.88;4968319;28;20411;-79
2023/01/26 05:37:33;;;;;;;17.27;11.30;;;;;;;-0.97;100.00;99642.25;4979002;28;20203;-79
2023/01/26 05:40:01;;;;;;;17.90;11.30;;;;;;;-0.92;100.00;99652.59;4991759;28;20234;-79
2023/01/26 05:42:31;;;;;;;21.50;12.90;;;;;;;-1.19;100.00;99644.19;4967110;28;20275;-79
2023/01/26 05:44:59;;;;;;;18.97;12.07;;;;;;;-1.17;100.00;99657.16;4967806;28;20203;-79
2023/01/26 05:47:27;;;;;;;18.00;10.90;;;;;;;-0.95;100.00;99650.91;4998113;28;20205;-79
2023/01/26 05:49:56;;;;;;;19.83;11.80;;;;;;;-0.91;100.00;99647.38;5027338;28;20729;-79
2023/01/26 05:52:24;;;;;;;18.47;12.37;;;;;;;-1.24;100.00;99645.97;4982439;28;20248;-79
2023/01/26 05:54:52;;;;;;;19.17;11.07;;;;;;;-1.00;100.00;99647.47;5030108;28;20197;-79
2023/01/26 05:57:21;;;;;;;18.23;11.07;;;;;;;-0.85;100.00;99641.28;5029243;28;20201;-79
2023/01/26 05:59:50;;;;;;;17.17;10.53;;;;;;;-1.09;100.00;99646.69;5027800;28;20251;-79
2023/01/26 06:02:19;;;;;;;15.40;9.43;;;;;;;-0.96;100.00;99651.78;5013292;28;20348;-79
2023/01/26 06:04:48;;;;;;;15.73;10.13;;;;;;;-0.79;100.00;99642.94;5041395;28;20271;-79
2023/01/26 06:07:17;;;;;;;17.87;10.37;;;;;;;-1.02;100.00;99646.63;5050809;28;20196;-79
2023/01/26 06:09:46;;;;;;;14.37;9.60;;;;;;;-0.83;100.00;99647.31;5055209;28;20187;-79
2023/01/26 06:12:17;;;;;;;14.87;9.80;;;;;;;-0.94;100.00;99646.56;5113422;28;20218;-79
2023/01/26 06:14:47;;;;;;;16.97;9.77;;;;;;;-0.85;100.00;99643.88;5109006;28;20218;-79
2023/01/26 06:17:18;;;;;;;17.00;10.30;;;;;;;-0.83;100.00;99646.47;5107213;28;20202;-79
2023/01/26 06:19:46;;;;;;;14.67;9.60;;;;;;;-1.03;100.00;99652.72;5112964;28;20187;-79
2023/01/26 06:22:15;;;;;;;15.43;9.80;;;;;;;-1.09;100.00;99663.16;5113460;28;20234;-79
2023/01/26 06:24:46;;;;;;;14.43;9.17;;;;;;;-1.04;100.00;99655.34;5107761;28;20246;-79
2023/01/26 06:27:17;;;;;;;14.40;8.93;;;;;;;-0.91;100.00;99651.72;5108643;28;20205;-79
2023/01/26 06:29:46;;;;;;;16.90;11.20;;;;;;;-0.99;100.00;99649.19;5107527;28;20374;-79
2023/01/26 06:32:16;;;;;;;16.33;11.43;;;;;;;-0.88;100.00;99649.94;5105356;28;20194;-79
2023/01/26 06:34:45;;;;;;;22.90;16.23;;;;;;;-1.12;100.00;99647.59;5110245;28;20252;-79
2023/01/26 06:37:14;;;;;;;17.33;12.47;;;;;;;-0.87;100.00;99658.59;5105598;28;20225;-79
2023/01/26 06:39:42;;;;;;;15.30;10.43;;;;;;;-0.79;100.00;99655.94;5109904;28;20668;-78
2023/01/26 06:42:11;;;;;;;15.37;9.03;;;;;;;-0.68;100.00;99651.47;5110204;28;20203;-80
2023/01/26 06:44:40;;;;;;;19.17;13.13;;;;;;;-0.88;100.00;99647.34;5106124;28;20207;-79
2023/01/26 06:47:08;;;;;;;18.10;12.33;;;;;;;-0.82;100.00;99654.25;5084388;28;20196;-78
2023/01/26 06:49:38;;;;;;;14.27;8.77;;;;;;;-0.80;100.00;99655.06;5091123;28;20200;-79
2023/01/26 06:52:22;;;;;;;12.90;8.20;;;;;;;-0.94;100.00;99652.63;5089589;28;20195;-77
2023/01/26 06:54:51;;;;;;;13.40;8.20;;;;;;;-0.90;100.00;99653.44;5091906;28;20195;-79
2023/01/26 06:57:19;;;;;;;14.03;9.23;;;;;;;-0.85;100.00;99653.41;5092926;28;20192;-78
2023/01/26 06:59:50;;;;;;;12.13;8.23;;;;;;;-0.83;100.00;99652.53;5089190;28;20262;-78
2023/01/26 07:02:21;;;;;;;15.97;10.20;;;;;;;-0.85;100.00;99654.28;5085756;28;20231;-79
2023/01/26 07:04:54;;;;;;;15.37;9.80;;;;;;;-0.85;100.00;99661.22;5092860;28;20214;-79
2023/01/26 07:07:26;;;;;;;14.43;9.17;;;;;;;-0.81;100.00;99661.16;5116850;28;20706;-79
2023/01/26 07:09:55;;;;;;;12.50;8.43;;;;;;;-0.75;100.00;99663.72;5106084;28;20198;-79
2023/01/26 07:12:37;;;;;;;12.83;9.00;;;;;;;-0.86;100.00;99662.97;5109941;28;20710;-77
2023/01/26 07:15:07;;;;;;;15.03;9.57;;;;;;;-0.96;100.00;99669.13;5116509;28;20228;-80
2023/01/26 07:17:35;;;;;;;14.47;8.70;;;;;;;-1.02;100.00;99675.22;5113428;28;20203;-78
2023/01/26 07:20:07;;;;;;;13.53;8.90;;;;;;;-1.14;100.00;99671.88;5114337;28;20219;-79
2023/01/26 07:22:36;;;;;;;16.10;9.40;;;;;;;-0.99;100.00;99674.34;5116950;28;20198;-79
2023/01/26 07:25:05;;;;;;;14.80;9.20;;;;;;;-0.97;100.00;99678.63;5109359;28;20264;-79
2023/01/26 07:27:33;;;;;;;14.93;9.43;;;;;;;-1.02;100.00;99680.44;5117556;28;20191;-79
2023/01/26 07:30:02;;;;;;;14.73;8.90;;;;;;;-0.89;100.00;99681.16;5110632;28;20703;-79
2023/01/26 07:32:31;;;;;;;14.03;9.53;;;;;;;-1.10;100.00;99690.03;5111037;28;20199;-79
2023/01/26 07:35:01;;;;;;;15.83;9.17;;;;;;;-1.06;100.00;99696.94;5112997;28;20198;-79
2023/01/26 07:37:31;;;;;;;13.57;9.23;;;;;;;-1.13;100.00;99689.19;5113813;28;20195;-79
2023/01/26 07:40:00;;;;;;;16.10;10.23;;;;;;;-1.04;100.00;99697.78;5111757;28;20226;-79
2023/01/26 07:42:29;;;;;;;18.23;10.47;;;;;;;-1.26;100.00;99696.22;5112499;28;20210;-79
2023/01/26 07:44:58;;;;;;;13.97;8.37;;;;;;;-1.01;100.00;99697.75;5116060;28;20226;-79
2023/01/26 07:47:27;;;;;;;16.47;9.13;;;;;;;-0.99;100.00;99701.19;5113061;28;20654;-78
2023/01/26 07:49:55;;;;;;;14.43;9.37;;;;;;;-1.07;100.00;99702.13;5112593;28;20191;-79
2023/01/26 07:52:24;;;;;;;15.30;9.80;;;;;;;-1.16;100.00;99701.34;5110974;28;20239;-79
2023/01/26 07:54:54;;;;;;;15.07;10.40;;;;;;;-1.14;100.00;99701.34;5113634;28;20198;-79
2023/01/26 07:57:23;;;;;;;18.60;9.97;;;;;;;-1.13;100.00;99712.59;5109476;28;20463;-79
2023/01/26 07:59:51;;;;;;;13.20;8.77;;;;;;;-1.02;100.00;99713.34;5111028;28;20187;-79
2023/01/26 08:02:20;;;;;;;15.50;9.30;;;;;;;-1.09;100.00;99699.53;5108439;28;20255;-79
2023/01/26 08:04:48;;;;;;;15.10;9.00;;;;;;;-1.12;100.00;99709.97;5112394;28;20692;-79
2023/01/26 08:07:18;;;;;;;16.27;9.47;;;;;;;-1.05;100.00;99706.47;5110963;28;20202;-79
2023/01/26 08:09:46;;;;;;;16.27;9.57;;;;;;;-0.93;100.00;99706.34;5113503;28;20194;-79
2023/01/26 08:12:18;;;;;;;14.63;9.40;;;;;;;-0.93;100.00;99708.94;5111488;28;20203;-79
2023/01/26 08:14:47;;;;;;;14.20;8.53;;;;;;;-1.13;100.00;99710.00;5109923;28;20191;-78
2023/01/26 08:17:18;;;;;;;17.07;9.90;;;;;;;-1.25;100.00;99709.22;5068608;28;20196;-78
2023/01/26 08:19:47;;;;;;;18.20;9.73;;;;;;;-1.12;100.00;99709.97;5064524;28;20269;-79
2023/01/26 08:22:15;;;;;;;14.77;9.00;;;;;;;-1.28;100.00;99703.16;5067651;28;20185;-78
2023/01/26 08:24:43;;;;;;;17.97;9.97;;;;;;;-1.25;100.00;99705.75;5070014;28;20295;-79
2023/01/26 08:27:13;;;;;;;16.17;9.90;;;;;;;-1.37;100.00;99713.63;5067774;28;20200;-79
2023/01/26 08:29:44;;;;;;;18.13;10.13;;;;;;;-1.29;100.00;99704.03;5070285;28;20189;-79
2023/01/26 08:32:13;;;;;;;17.20;9.60;;;;;;;-1.25;100.00;99705.75;5070114;28;20365;-79
2023/01/26 08:34:42;;;;;;;16.97;10.20;;;;;;;-1.32;100.00;99709.25;5070339;28;20187;-79
2023/01/26 08:37:10;;;;;;;18.90;10.50;;;;;;;-1.13;100.00;99699.59;5113601;28;20187;-79
2023/01/26 08:39:44;;;;;;;18.07;10.03;;;;;;;-1.09;100.00;99698.69;5112226;28;20244;-79
2023/01/26 08:42:12;;;;;;;16.67;10.07;;;;;;;-1.16;100.00;99703.06;5112243;28;20187;-79
2023/01/26 08:44:41;;;;;;;16.03;10.03;;;;;;;-1.06;100.00;99711.66;5113172;28;20230;-79
2023/01/26 08:47:11;;;;;;;19.73;10.90;;;;;;;-1.06;100.00;99711.66;5113332;28;20187;-78
2023/01/26 08:49:40;;;;;;;18.17;10.80;;;;;;;-0.98;100.00;99712.44;5114784;28;20199;-79
2023/01/26 08:52:08;;;;;;;17.47;11.10;;;;;;;-1.12;100.00;99706.50;5115072;28;20195;-79
2023/01/26 08:54:36;;;;;;;16.87;10.40;;;;;;;-1.13;100.00;99713.44;5107737;28;20197;-79
2023/01/26 08:57:05;;;;;;;15.77;9.53;;;;;;;-1.10;100.00;99718.63;5107252;28;20247;-78
2023/01/26 08:59:33;;;;;;;16.33;10.67;;;;;;;-1.16;100.00;99713.44;5114872;28;20225;-79
2023/01/26 09:02:02;;;;;;;17.47;10.10;;;;;;;-1.25;100.00;99713.56;5107156;28;20248;-79
2023/01/26 09:04:33;;;;;;;18.97;11.13;;;;;;;-1.10;100.00;99713.41;5107338;28;20260;-79
2023/01/26 09:07:01;;;;;;;19.50;10.93;;;;;;;-1.14;100.00;99713.47;5114766;28;20190;-79
2023/01/26 09:09:30;;;;;;;17.70;10.37;;;;;;;-1.23;100.00;99706.59;5114733;28;20187;-78
2023/01/26 09:12:01;;;;;;;17.43;10.60;;;;;;;-1.11;100.00;99713.44;5110874;28;20240;-79
2023/01/26 09:14:30;;;;;;;19.87;11.43;;;;;;;-1.17;100.00;99711.72;5106354;28;20678;-79
2023/01/26 09:17:00;;;;;;;18.70;10.90;;;;;;;-0.93;100.00;99715.88;5111081;28;20678;-79
2023/01/26 09:19:29;;;;;;;20.57;11.73;;;;;;;-1.02;100.00;99706.41;5108181;28;20662;-79
2023/01/26 09:21:59;;;;;;;20.33;11.87;;;;;;;-1.02;100.00;99708.16;5110263;28;20202;-79
2023/01/26 09:24:28;;;;;;;21.37;13.00;;;;;;;-1.24;100.00;99700.53;5109416;28;20610;-78
2023/01/26 09:26:56;;;;;;;21.07;11.70;;;;;;;-0.98;100.00;99710.69;5101419;28;20203;-79
2023/01/26 09:29:24;;;;;;;20.83;11.87;;;;;;;-0.81;100.00;99709.69;5111282;28;20191;-79
2023/01/26 09:31:54;;;;;;;19.80;11.23;;;;;;;-0.66;100.00;99714.78;5111582;28;20194;-79
2023/01/26 09:34:24;;;;;;;20.53;11.60;;;;;;;-0.72;100.00;99714.81;5027032;28;20198;-79
2023/01/26 09:36:52;;;;;;;20.97;11.53;;;;;;;-0.62;100.00;99714.72;5022229;28;20206;-79
2023/01/26 09:39:22;;;;;;;19.33;10.93;;;;;;;-0.61;100.00;99711.22;5027961;28;20232;-79
2023/01/26 09:42:03;;;;;;;18.37;10.73;;;;;;;-0.37;100.00;99707.53;5028827;28;20248;-79
2023/01/26 09:44:36;;;;;;;20.33;11.57;;;;;;;-0.35;100.00;99710.97;5021349;28;20206;-79
2023/01/26 09:47:14;;;;;;;18.67;10.77;;;;;;;-0.30;100.00;99705.69;5025548;28;20201;-79
2023/01/26 09:49:48;;;;;;;21.30;11.47;;;;;;;-0.28;100.00;99703.97;5021311;28;20190;-79
2023/01/26 09:52:26;;;;;;;21.17;12.17;;;;;;;-0.35;100.00;99702.31;5031133;28;20205;-79
2023/01/26 09:55:00;;;;;;;23.53;12.27;;;;;;;-0.32;100.00;99700.50;5026751;28;20198;-79
2023/01/26 09:57:36;;;;;;;18.83;11.43;;;;;;;-0.24;100.00;99709.97;5024626;28;20190;-79
2023/01/26 10:00:10;;;;;;;19.97;11.83;;;;;;;-0.20;100.00;99707.31;5024754;28;20185;-79
2023/01/26 10:02:52;;;;;;;21.47;11.80;;;;;;;-0.07;100.00;99708.91;5025802;28;20225;-79
2023/01/26 10:05:32;;;;;;;20.50;11.20;;;;;;;0.05;100.00;99704.44;5021149;28;20222;-79
2023/01/26 10:08:01;;;;;;;22.47;12.37;;;;;;;0.06;100.00;99698.34;5068390;28;20196;-79
2023/01/26 10:10:38;;;;;;;17.43;9.80;;;;;;;0.16;100.00;99690.38;5068306;28;20216;-79
2023/01/26 10:13:11;;;;;;;19.03;10.27;;;;;;;0.12;100.00;99680.03;5064746;28;20200;-79
2023/01/26 10:15:42;;;;;;;20.10;10.43;;;;;;;-0.11;100.00;99682.91;5068390;28;20230;-79
2023/01/26 10:18:18;;;;;;;32.50;17.13;;;;;;;0.02;100.00;99684.50;5061321;28;20270;-79
2023/01/26 10:20:53;;;;;;;19.20;10.43;;;;;;;-0.11;100.00;99685.53;5066821;28;20204;-79
2023/01/26 10:23:25;;;;;;;21.47;10.30;;;;;;;-0.27;100.00;99689.22;5078440;28;20261;-79
2023/01/26 10:26:02;;;;;;;20.53;9.53;;;;;;;-0.26;100.00;99690.94;5093278;28;20216;-78
2023/01/26 10:28:33;;;;;;;20.23;9.90;;;;;;;-0.14;100.00;99686.44;5092933;28;20194;-79
2023/01/26 10:31:05;;;;;;;25.13;11.33;;;;;;;-0.24;100.00;99681.34;5092743;28;20206;-79
2023/01/26 10:33:36;;;;;;;19.67;9.97;;;;;;;-0.28;100.00;99674.47;5091818;28;20195;-79
2023/01/26 10:36:08;;;;;;;22.03;10.33;;;;;;;-0.24;100.00;99682.22;5092444;28;20192;-79
2023/01/26 10:38:42;;;;;;;21.83;10.17;;;;;;;-0.20;100.00;99677.81;5094237;28;20208;-79
2023/01/26 10:41:28;;;;;;;24.87;10.53;;;;;;;-0.11;100.00;99681.16;5091991;28;20203;-79
2023/01/26 10:43:58;;;;;;;25.27;10.80;;;;;;;-0.08;100.00;99675.94;5050465;28;20189;-78
2023/01/26 10:46:30;;;;;;;19.90;10.37;;;;;;;-0.10;100.00;99674.22;5047807;28;20298;-78
2023/01/26 10:49:01;;;;;;;22.60;10.30;;;;;;;-0.07;100.00;99674.22;5048978;28;20200;-79
2023/01/26 10:51:32;;;;;;;23.63;10.13;;;;;;;-0.02;100.00;99675.84;5048401;28;20201;-79
2023/01/26 10:54:21;;;;;;;24.37;11.40;;;;;;;-0.08;100.00;99670.75;5050109;28;20684;-79
2023/01/26 10:56:56;;;;;;;23.13;10.47;;;;;;;-0.11;100.00;99659.50;5043416;28;20193;-79
2023/01/26 10:59:32;;;;;;;23.77;11.47;;;;;;;0.09;100.00;99661.81;5050036;28;20231;-79
2023/01/26 11:02:03;;;;;;;20.33;10.57;;;;;;;0.07;100.00;99658.38;5050648;28;20291;-78
2023/01/26 11:04:32;;;;;;;25.53;12.30;;;;;;;0.12;100.00;99659.19;5064947;28;20200;-79
2023/01/26 11:07:26;;;;;;;24.70;11.10;;;;;;;0.08;100.00;99650.56;5067806;28;20230;-79
2023/01/26 11:09:55;;;;;;;23.87;11.47;;;;;;;0.18;100.00;99652.16;5091631;28;20194;-79
2023/01/26 11:12:26;;;;;;;22.60;10.53;;;;;;;0.06;100.00;99652.31;5026114;28;20193;-79
2023/01/26 11:15:06;;;;;;;22.27;10.27;;;;;;;0.31;100.00;99645.03;5029898;28;20244;-79
2023/01/26 11:17:41;;;;;;;25.83;11.70;;;;;;;0.19;100.00;99647.78;5028670;28;20225;-79
2023/01/26 11:20:39;;;;;;;24.70;11.33;;;;;;;0.30;100.00;99638.09;5025095;28;20235;-79
2023/01/26 11:23:16;;;;;;;24.93;11.03;;;;;;;0.16;100.00;99640.03;4993158;28;20194;-79
2023/01/26 11:26:01;;;;;;;24.90;11.00;;;;;;;0.34;100.00;99636.31;5027093;28;20213;-78
2023/01/26 11:28:46;;;;;;;26.90;11.80;;;;;;;0.28;100.00;99627.69;5029943;28;20275;-79
2023/01/26 11:31:23;;;;;;;25.17;11.23;;;;;;;0.30;100.00;99627.69;5093241;28;20195;-79
2023/01/26 11:34:06;;;;;;;26.73;11.47;;;;;;;0.31;100.00;99626.81;5109062;28;20258;-79
2023/01/26 11:36:42;;;;;;;23.93;10.87;;;;;;;0.37;100.00;99616.25;5116561;28;20187;-79
2023/01/26 11:39:25;;;;;;;26.13;12.97;;;;;;;0.53;100.00;99620.38;5113877;28;20194;-79
2023/01/26 11:42:07;;;;;;;26.10;13.17;;;;;;;0.46;100.00;99617.88;5039112;28;20274;-79
2023/01/26 11:45:21;;;;;;;24.33;11.20;;;;;;;0.17;100.00;99621.78;5064011;28;20196;-79
2023/01/26 11:48:00;;;;;;;27.87;11.73;;;;;;;0.42;100.00;99618.81;5010946;28;20221;-79
2023/01/26 11:50:37;;;;;;;29.30;12.47;;;;;;;0.32;100.00;99619.84;5008847;28;20303;-79
2023/01/26 11:53:54;;;;;;;22.83;11.63;;;;;;;0.36;100.00;99609.34;5049785;28;20203;-79
2023/01/26 11:56:36;;;;;;;28.00;12.47;;;;;;;0.36;100.00;99603.28;4991981;28;20191;-79
2023/01/26 11:59:12;;;;;;;26.53;12.57;;;;;;;0.44;100.00;99596.19;4993983;28;20530;-79
2023/01/26 12:01:49;;;;;;;29.60;13.23;;;;;;;0.53;100.00;99596.91;5028817;28;20248;-79
2023/01/26 12:04:20;;;;;;;28.47;13.00;;;;;;;0.71;100.00;99587.94;5031564;28;20241;-79
2023/01/26 12:06:54;;;;;;;28.63;13.23;;;;;;;0.73;100.00;99580.06;5065192;28;20212;-78
2023/01/26 12:09:31;;;;;;;27.63;12.70;;;;;;;0.74;100.00;99581.78;5071940;28;20196;-79
2023/01/26 12:12:09;;;;;;;27.80;13.00;;;;;;;0.88;100.00;99585.03;5070792;28;20261;-79
2023/01/26 12:14:44;;;;;;;29.20;13.70;;;;;;;0.92;100.00;99578.84;5075177;28;20196;-79